Time;durP1;ratioP1;P1;durP2;ratioP2;P2;SDS_P1;SDS_P2;PMS_P1;PMS_P2;Temp;Humidity;BMP_temperature;BMP_pressure;BME280_temperature;BME280_humidity;BME280_pressure;Samples;Min_cycle;Max_cycle;Signal;HPM_P1;HPM_P2
2022/03/18 00:01:43;;;;;;;11.32;7.85;;;;;;;2.67;79.28;103936.47;5056045;28;20021;-35
2022/03/18 00:04:08;;;;;;;11.93;7.53;;;;;;;2.60;79.07;103932.53;5056281;28;20025;-35
2022/03/18 00:06:34;;;;;;;10.33;6.83;;;;;;;2.53;78.86;103944.56;5055600;28;20481;-35
2022/03/18 00:08:59;;;;;;;14.32;8.57;;;;;;;2.36;79.77;103935.00;5055920;28;20029;-35
2022/03/18 00:11:25;;;;;;;10.90;7.32;;;;;;;2.41;78.68;103938.25;5056279;28;20418;-35
2022/03/18 00:13:50;;;;;;;12.10;7.00;;;;;;;2.36;78.97;103942.19;5055335;28;20577;-35
2022/03/18 00:16:15;;;;;;;12.07;7.23;;;;;;;2.35;78.16;103938.66;5056155;28;20146;-35
2022/03/18 00:18:41;;;;;;;10.77;7.10;;;;;;;2.29;78.92;103939.91;5055580;28;20393;-35
2022/03/18 00:21:07;;;;;;;12.30;6.83;;;;;;;2.05;79.22;103910.34;5055871;28;20500;-35
2022/03/18 00:23:32;;;;;;;10.30;7.07;;;;;;;2.15;80.51;103921.28;5054754;28;20036;-35
2022/03/18 00:25:58;;;;;;;10.27;6.95;;;;;;;2.20;80.82;103935.19;5055687;28;20449;-35
2022/03/18 00:28:23;;;;;;;10.80;6.43;;;;;;;2.21;80.67;103931.53;5055454;28;20041;-35
2022/03/18 00:30:49;;;;;;;9.43;6.33;;;;;;;2.15;80.62;103918.59;5055616;28;20061;-35
2022/03/18 00:33:15;;;;;;;11.23;6.85;;;;;;;2.22;80.78;103938.59;5055291;28;20473;-35
2022/03/18 00:35:40;;;;;;;11.60;7.97;;;;;;;2.26;80.92;103937.44;5056059;28;20025;-35
2022/03/18 00:38:05;;;;;;;10.90;7.77;;;;;;;2.29;82.43;103947.03;5055963;28;20024;-35
2022/03/18 00:40:31;;;;;;;7.63;5.90;;;;;;;2.20;80.79;103943.19;5055492;28;20385;-35
2022/03/18 00:42:57;;;;;;;10.15;6.03;;;;;;;2.31;81.60;103951.34;5054775;28;20479;-35
2022/03/18 00:45:22;;;;;;;9.20;5.82;;;;;;;2.29;81.43;103947.03;5055378;28;20098;-35
2022/03/18 00:53:16;;;;;;;11.32;6.40;;;;;;;2.15;80.92;103968.44;5055207;28;20496;-35
2022/03/18 00:55:41;;;;;;;9.80;5.90;;;;;;;2.01;80.64;103964.88;5055211;28;20029;-35
2022/03/18 00:58:06;;;;;;;8.17;5.97;;;;;;;2.13;82.82;103970.38;5055106;28;20037;-35
2022/03/18 01:00:32;;;;;;;9.80;6.63;;;;;;;2.14;82.64;103974.75;5054434;28;20047;-35
2022/03/18 01:02:57;;;;;;;10.30;6.70;;;;;;;2.13;82.68;103975.72;5055014;28;20037;-35
2022/03/18 01:05:22;;;;;;;8.63;6.43;;;;;;;2.14;82.99;103978.28;5054984;28;20385;-35
2022/03/18 01:07:48;;;;;;;13.90;8.73;;;;;;;2.19;82.46;103983.31;5054635;28;20025;-35
2022/03/18 01:10:13;;;;;;;9.70;7.23;;;;;;;2.01;82.35;103962.22;5054992;28;20024;-35
2022/03/18 01:12:38;;;;;;;14.13;6.77;;;;;;;2.15;83.36;103988.03;5054559;28;20074;-35
2022/03/18 01:15:04;;;;;;;10.50;7.07;;;;;;;2.00;83.65;103976.50;5054780;28;20029;-35
2022/03/18 01:17:30;;;;;;;11.43;7.03;;;;;;;2.06;83.84;103969.91;5054416;28;20035;-35
2022/03/18 01:19:55;;;;;;;9.63;5.77;;;;;;;2.10;83.85;103986.56;5054417;28;20032;-35
2022/03/18 01:22:20;;;;;;;9.47;6.47;;;;;;;2.15;83.18;103979.13;5054573;28;20040;-35
2022/03/18 01:24:46;;;;;;;10.23;6.43;;;;;;;2.09;82.10;103987.53;5054616;28;20036;-35
2022/03/18 01:27:11;;;;;;;11.63;6.60;;;;;;;2.06;82.24;103973.44;5054807;28;20547;-35
2022/03/18 01:29:36;;;;;;;8.80;5.83;;;;;;;2.13;83.10;103976.56;5054085;28;20461;-35
2022/03/18 01:32:02;;;;;;;10.37;6.37;;;;;;;2.10;82.84;103975.91;5054197;28;20422;-35
2022/03/18 01:34:27;;;;;;;9.35;6.22;;;;;;;2.02;83.64;103979.06;5054286;28;20037;-35
2022/03/18 01:36:53;;;;;;;10.73;6.27;;;;;;;2.05;84.34;103971.75;5053837;28;20033;-33
2022/03/18 01:39:18;;;;;;;8.80;5.60;;;;;;;2.03;83.36;103981.63;5054098;28;20397;-33
2022/03/18 01:41:44;;;;;;;9.53;5.90;;;;;;;1.97;82.94;103982.03;5054595;28;20064;-33
2022/03/18 01:44:11;;;;;;;8.40;5.47;;;;;;;1.91;82.83;103973.56;5054424;28;20025;-33
2022/03/18 01:46:39;;;;;;;8.70;5.80;;;;;;;1.88;83.05;103979.94;5054435;28;20033;-33
2022/03/18 01:49:06;;;;;;;8.27;5.53;;;;;;;1.84;83.23;103980.25;5053822;28;20389;-34
2022/03/18 01:51:33;;;;;;;9.82;5.72;;;;;;;1.67;83.41;103946.63;5053689;28;20051;-35
2022/03/18 01:56:43;;;;;;;7.30;4.63;;;;;;;1.83;83.30;103962.53;5054301;28;20060;-35
2022/03/18 01:59:08;;;;;;;10.30;5.40;;;;;;;1.80;83.28;103963.56;5054004;28;20025;-35
2022/03/18 02:01:34;;;;;;;11.30;5.30;;;;;;;1.72;82.46;103971.22;5052459;28;20053;-35
2022/03/18 02:03:59;;;;;;;11.05;5.65;;;;;;;1.49;82.80;103954.81;5054070;28;20025;-35
2022/03/18 02:06:25;;;;;;;9.70;5.30;;;;;;;1.58;82.80;103969.41;5054434;28;20033;-35
2022/03/18 02:08:50;;;;;;;9.17;5.47;;;;;;;1.57;82.88;103989.03;5053545;28;20040;-35
2022/03/18 02:11:16;;;;;;;8.50;5.23;;;;;;;1.69;83.77;103987.41;5054078;28;20032;-35
2022/03/18 02:13:41;;;;;;;11.37;6.50;;;;;;;1.62;83.75;103984.28;5053690;28;20116;-35
2022/03/18 02:16:06;;;;;;;7.57;5.23;;;;;;;1.74;84.38;103986.16;5053970;28;20268;-35
2022/03/18 02:18:32;;;;;;;5.93;5.00;;;;;;;1.68;83.89;103991.88;5053340;28;20363;-35
2022/03/18 02:20:57;;;;;;;8.37;5.17;;;;;;;1.65;83.54;103992.06;5053688;28;20100;-35
2022/03/18 02:23:22;;;;;;;7.93;5.47;;;;;;;1.59;82.82;103988.94;5053185;28;20021;-35
2022/03/18 02:25:48;;;;;;;7.40;4.93;;;;;;;1.59;84.61;103992.44;5054072;28;20033;-35
2022/03/18 02:28:13;;;;;;;9.87;5.90;;;;;;;1.46;83.37;103981.66;5052956;28;20028;-35
2022/03/18 02:30:39;;;;;;;7.50;5.10;;;;;;;1.47;83.23;103998.56;5053295;28;20020;-35
2022/03/18 02:33:04;;;;;;;16.52;5.93;;;;;;;1.43;84.21;103986.34;5053930;28;20029;-35
2022/03/18 02:35:30;;;;;;;9.43;5.53;;;;;;;1.49;84.32;103985.97;5053394;28;20104;-35
2022/03/18 02:37:57;;;;;;;8.45;5.38;;;;;;;1.51;84.21;104006.28;5053123;28;20727;-35
2022/03/18 02:40:24;;;;;;;7.00;5.30;;;;;;;1.59;83.95;104011.13;5053007;28;20029;-35
2022/03/18 02:42:49;;;;;;;7.90;4.93;;;;;;;1.40;82.79;103998.06;5053191;28;20021;-35
2022/03/18 02:45:15;;;;;;;6.83;5.00;;;;;;;1.45;83.65;104011.97;5053625;28;20079;-35
2022/03/18 02:47:40;;;;;;;9.07;5.87;;;;;;;1.45;83.45;104005.78;5058024;28;20025;-35
2022/03/18 02:50:06;;;;;;;8.17;5.30;;;;;;;1.41;83.98;104006.91;5060150;28;20446;-35
2022/03/18 02:52:32;;;;;;;7.28;4.70;;;;;;;1.41;85.60;103999.75;5060177;28;20090;-35
2022/03/18 02:54:57;;;;;;;6.53;4.55;;;;;;;1.42;84.81;104004.16;5060415;28;20037;-35
2022/03/18 02:57:23;;;;;;;7.53;5.20;;;;;;;1.43;84.17;104010.34;5059581;28;20021;-35
2022/03/18 02:59:48;;;;;;;8.33;4.90;;;;;;;1.42;84.67;104004.16;5059986;28;20105;-35
2022/03/18 03:02:15;;;;;;;9.70;4.93;;;;;;;1.44;84.31;104026.25;5059167;28;20029;-35
2022/03/18 03:07:59;;;;;;;5.55;4.18;;;;;;;1.46;85.73;104021.66;5059812;28;20029;-35
2022/03/18 03:10:11;;;;;;;6.28;4.53;;;;;;;1.33;83.89;104023.38;5059569;28;20036;-35
2022/03/18 03:12:40;;;;;;;7.38;4.05;;;;;;;1.16;83.85;104013.72;5059426;28;20033;-35
2022/03/18 03:15:07;;;;;;;7.82;4.20;;;;;;;1.16;84.06;104015.53;5059473;28;20060;-34
2022/03/18 03:17:32;;;;;;;;;;;;;;;1.35;83.19;104020.63;5059562;28;20132;-35
2022/03/18 03:19:58;;;;;;;7.03;4.57;;;;;;;1.12;82.78;104041.50;5059753;28;19916;-35
2022/03/18 03:22:23;;;;;;;7.32;4.60;;;;;;;1.11;84.42;104029.13;5059585;28;20021;-34
2022/03/18 03:24:48;;;;;;;7.83;5.30;;;;;;;1.16;85.06;104037.72;5059759;28;20056;-35
2022/03/18 03:27:14;;;;;;;7.73;5.03;;;;;;;1.21;85.62;104040.97;5059334;28;20028;-34
2022/03/18 03:29:39;;;;;;;9.50;5.30;;;;;;;1.23;85.29;104048.88;5060094;28;20032;-35
2022/03/18 03:32:05;;;;;;;7.53;4.90;;;;;;;1.22;85.18;104048.03;5059515;28;20481;-35
2022/03/18 03:34:30;;;;;;;6.38;5.40;;;;;;;1.15;85.07;104025.34;5059805;28;20393;-35
2022/03/18 03:36:55;;;;;;;8.10;4.97;;;;;;;1.21;85.15;104037.44;5059552;28;20032;-35
2022/03/18 03:39:21;;;;;;;9.90;5.07;;;;;;;0.92;84.35;104015.19;5060098;28;20029;-35
2022/03/18 03:41:46;;;;;;;8.33;5.47;;;;;;;1.03;84.54;104056.25;5059321;28;20061;-35
2022/03/18 03:44:12;;;;;;;6.67;4.97;;;;;;;0.95;82.94;104062.97;5059200;28;20025;-35
2022/03/18 03:46:37;;;;;;;7.65;4.85;;;;;;;1.03;85.45;104060.72;5058038;28;20036;-35
2022/03/18 03:49:02;;;;;;;7.55;5.43;;;;;;;0.96;85.21;104051.34;5058698;28;20037;-35
2022/03/18 03:51:28;;;;;;;8.13;4.83;;;;;;;1.00;86.11;104047.56;5059630;28;20081;-34
2022/03/18 03:53:53;;;;;;;9.97;4.97;;;;;;;0.93;84.97;104049.75;5059421;28;20031;-35
2022/03/18 03:56:18;;;;;;;9.00;5.00;;;;;;;0.96;84.42;104075.34;5058902;28;20155;-35
2022/03/18 03:58:44;;;;;;;7.50;5.53;;;;;;;1.00;84.71;104079.56;5056090;28;20056;-35
2022/03/18 04:01:09;;;;;;;8.70;5.40;;;;;;;1.02;85.64;104089.19;5056201;28;20513;-35
2022/03/18 04:03:35;;;;;;;8.50;5.00;;;;;;;0.91;86.07;104069.44;5055699;28;20112;-35
2022/03/18 04:06:01;;;;;;;7.18;5.15;;;;;;;0.96;84.96;104078.88;5055536;28;20107;-35
2022/03/18 04:08:26;;;;;;;8.30;4.80;;;;;;;0.85;82.33;104086.63;5055399;28;20068;-34
2022/03/18 04:10:52;;;;;;;7.97;4.73;;;;;;;0.90;83.69;104089.03;5071342;28;20025;-34
2022/03/18 04:13:17;;;;;;;7.85;5.38;;;;;;;0.92;85.36;104087.13;5055817;28;20032;-34
2022/03/18 04:15:43;;;;;;;10.10;5.93;;;;;;;0.93;84.74;104088.88;5055620;28;20021;-34
2022/03/18 04:18:08;;;;;;;9.45;5.78;;;;;;;0.98;85.08;104102.78;5055594;28;20052;-34
2022/03/18 04:20:34;;;;;;;13.50;5.87;;;;;;;0.98;86.04;104100.13;5056405;28;20036;-34
2022/03/18 04:22:59;;;;;;;7.40;4.83;;;;;;;0.95;85.73;104097.63;5055463;28;20114;-34
2022/03/18 04:25:24;;;;;;;8.20;4.93;;;;;;;0.96;85.51;104104.66;5056343;28;20032;-34
2022/03/18 04:27:50;;;;;;;6.87;5.20;;;;;;;0.88;85.05;104101.56;5055572;28;20179;-34
2022/03/18 04:30:16;;;;;;;7.27;4.93;;;;;;;0.84;85.40;104116.88;5056105;28;20039;-34
2022/03/18 04:32:42;;;;;;;7.35;5.05;;;;;;;0.66;85.79;104089.47;5055719;28;20025;-34
2022/03/18 04:35:09;;;;;;;11.27;5.78;;;;;;;0.86;86.54;104119.47;5055580;28;20590;-35
2022/03/18 04:37:37;;;;;;;7.78;5.07;;;;;;;0.81;85.69;104124.19;5055381;28;20029;-35
2022/03/18 04:40:04;;;;;;;6.18;4.35;;;;;;;0.72;84.91;104121.09;5070878;28;20032;-35
2022/03/18 04:42:29;;;;;;;8.27;4.65;;;;;;;0.69;84.80;104109.78;5055822;28;20032;-35
2022/03/18 04:44:55;;;;;;;7.47;4.87;;;;;;;0.59;84.53;104112.09;5056181;28;20385;-35
2022/03/18 04:47:20;;;;;;;6.97;4.80;;;;;;;0.69;85.22;104129.28;5055203;28;20032;-35
2022/03/18 04:49:45;;;;;;;7.63;5.03;;;;;;;0.67;85.23;104116.97;5055637;28;20040;-35
2022/03/18 04:52:12;;;;;;;9.10;5.67;;;;;;;0.65;85.78;104133.03;5056082;28;20057;-35
2022/03/18 04:54:37;;;;;;;;;;;;;;;0.73;84.60;104128.16;5055855;28;20025;-35
2022/03/18 04:57:20;;;;;;;8.70;5.07;;;;;;;0.59;85.67;104130.72;5055083;28;19913;-35
2022/03/18 04:59:54;;;;;;;6.95;4.75;;;;;;;0.57;85.42;104127.28;5055822;28;20666;-35
2022/03/18 05:02:24;;;;;;;10.23;5.68;;;;;;;0.48;85.82;104119.78;5054856;28;20025;-35
2022/03/18 05:04:50;;;;;;;8.23;5.90;;;;;;;0.47;85.48;104134.06;5055784;28;20032;-35
2022/03/18 05:07:16;;;;;;;7.03;5.38;;;;;;;0.40;84.63;104144.19;5054877;28;20029;-35
2022/03/18 05:09:42;;;;;;;10.02;5.75;;;;;;;0.47;85.26;104144.72;5054731;28;20036;-35
2022/03/18 05:12:08;;;;;;;;;;;;;;;0.57;84.62;104150.38;5054779;28;20377;-34
2022/03/18 05:14:35;;;;;;;10.32;5.60;;;;;;;0.48;84.89;104157.06;5055371;28;19909;-34
2022/03/18 05:17:01;;;;;;;8.07;4.78;;;;;;;0.49;85.82;104158.81;5054732;28;20083;-35
2022/03/18 05:19:26;;;;;;;7.78;5.32;;;;;;;0.41;84.05;104161.88;5055531;28;20033;-34
2022/03/18 05:21:52;;;;;;;7.77;5.53;;;;;;;0.37;84.89;104165.66;5054683;28;20358;-34
2022/03/18 05:24:17;;;;;;;8.30;5.77;;;;;;;0.34;85.83;104167.59;5054772;28;20070;-34
2022/03/18 05:26:43;;;;;;;9.30;5.10;;;;;;;0.18;84.16;104159.59;5054521;28;20397;-34
2022/03/18 05:29:09;;;;;;;10.13;5.97;;;;;;;0.25;85.26;104167.19;5054207;28;20366;-34
2022/03/18 05:31:36;;;;;;;9.98;5.30;;;;;;;0.15;86.39;104152.66;5054409;28;20481;-35
2022/03/18 05:34:01;;;;;;;6.63;4.95;;;;;;;0.26;86.61;104173.38;5054867;28;20044;-34
2022/03/18 05:36:26;;;;;;;7.73;4.77;;;;;;;0.33;87.09;104171.22;5054096;28;20033;-34
2022/03/18 05:38:52;;;;;;;6.20;4.40;;;;;;;0.16;86.04;104151.69;5054903;28;20032;-34
2022/03/18 05:41:17;;;;;;;6.87;4.67;;;;;;;0.35;86.43;104169.34;5054560;28;20025;-35
2022/03/18 05:43:43;;;;;;;7.77;5.10;;;;;;;0.32;87.00;104159.72;5054703;28;20028;-35
2022/03/18 05:46:09;;;;;;;7.07;4.75;;;;;;;0.33;87.77;104147.25;5054213;28;20107;-35
2022/03/18 05:48:34;;;;;;;6.63;4.77;;;;;;;0.21;88.01;104133.69;5054927;28;20060;-34
2022/03/18 05:51:00;;;;;;;7.50;4.87;;;;;;;0.43;87.98;104159.97;5054473;28;20373;-35
2022/03/18 05:53:26;;;;;;;10.68;5.85;;;;;;;0.36;86.91;104171.06;5053836;28;20028;-35
2022/03/18 05:58:36;;;;;;;7.10;4.50;;;;;;;0.44;87.38;104188.34;5053756;28;20059;-35
2022/03/18 06:01:01;;;;;;;9.83;5.53;;;;;;;0.43;87.55;104189.28;5053698;28;20537;-35
2022/03/18 06:03:27;;;;;;;6.93;4.73;;;;;;;0.48;87.81;104189.03;5053744;28;20040;-34
2022/03/18 06:05:52;;;;;;;8.70;5.10;;;;;;;0.25;86.78;104159.19;5054343;28;20031;-34
2022/03/18 06:13:45;;;;;;;8.75;5.75;;;;;;;0.27;85.35;104196.38;5053702;28;20094;-35
2022/03/18 06:16:11;;;;;;;9.07;5.47;;;;;;;0.39;86.38;104210.81;5053915;28;20400;-35
2022/03/18 06:18:36;;;;;;;11.80;6.00;;;;;;;0.34;83.67;104208.44;5054089;28;20033;-34
2022/03/18 06:21:05;;;;;;;9.10;5.33;;;;;;;0.31;84.49;104218.38;5053188;28;20036;-34
2022/03/18 06:23:31;;;;;;;10.23;5.55;;;;;;;0.43;87.23;104215.91;5053891;28;20132;-34
2022/03/18 06:25:56;;;;;;;12.13;5.10;;;;;;;0.36;86.94;104206.53;5053308;28;20473;-34
2022/03/18 06:28:22;;;;;;;10.60;4.70;;;;;;;0.49;86.83;104217.41;5053726;28;20386;-34
2022/03/18 06:30:47;;;;;;;10.77;5.10;;;;;;;0.68;88.77;104220.78;5053928;28;20095;-35
2022/03/18 06:33:12;;;;;;;10.60;5.20;;;;;;;0.61;87.80;104203.41;5053314;28;20087;-34
2022/03/18 06:35:38;;;;;;;11.67;5.60;;;;;;;0.73;86.81;104220.50;5053084;28;20036;-35
2022/03/18 06:38:03;;;;;;;8.27;5.13;;;;;;;0.88;88.30;104219.69;5053592;28;20025;-35
2022/03/18 06:40:28;;;;;;;12.77;5.80;;;;;;;0.91;87.26;104229.31;5053373;28;20032;-35
2022/03/18 06:42:54;;;;;;;14.32;6.22;;;;;;;0.93;87.36;104232.75;5053225;28;20048;-36
2022/03/18 06:45:20;;;;;;;12.37;5.57;;;;;;;0.82;85.44;104224.47;5053614;28;20454;-35
2022/03/18 06:47:46;;;;;;;7.13;5.10;;;;;;;1.14;89.23;104236.88;5053416;28;20166;-35
2022/03/18 06:50:11;;;;;;;10.03;5.03;;;;;;;1.29;89.97;104233.34;5052789;28;20485;-35
2022/03/18 06:52:36;;;;;;;10.60;5.37;;;;;;;1.39;90.87;104224.81;5053097;28;20066;-35
2022/03/18 06:55:02;;;;;;;11.00;6.40;;;;;;;1.49;89.57;104244.69;5053017;28;20033;-35
2022/03/18 06:57:27;;;;;;;12.75;5.70;;;;;;;1.42;85.57;104254.84;5052697;28;20036;-35
2022/03/18 06:59:53;;;;;;;14.03;6.17;;;;;;;1.40;85.08;104247.88;5052895;28;20045;-35
2022/03/18 07:02:18;;;;;;;7.40;5.73;;;;;;;1.39;85.40;104247.00;5053389;28;20024;-35
2022/03/18 07:04:44;;;;;;;13.23;7.10;;;;;;;1.49;87.28;104247.34;5053452;28;20029;-35
2022/03/18 07:07:09;;;;;;;11.90;6.50;;;;;;;1.64;86.99;104259.81;5051704;28;20039;-35
2022/03/18 07:09:36;;;;;;;14.07;6.80;;;;;;;1.65;86.02;104264.19;5053624;28;20060;-39
2022/03/18 07:12:02;;;;;;;14.50;7.22;;;;;;;1.85;89.92;104256.81;5053014;28;20295;-35
2022/03/18 07:14:27;;;;;;;10.80;6.40;;;;;;;1.88;86.66;104264.66;5053384;28;20053;-35
2022/03/18 07:19:38;;;;;;;13.68;7.75;;;;;;;2.20;88.60;104273.44;5052807;28;20067;-35
2022/03/18 07:22:04;;;;;;;14.77;7.50;;;;;;;2.30;89.52;104256.75;5053020;28;20488;-35
2022/03/18 07:24:29;;;;;;;18.75;8.45;;;;;;;2.39;88.99;104249.13;5053192;28;20355;-35
2022/03/18 07:26:55;;;;;;;13.37;7.07;;;;;;;2.44;87.35;104263.06;5053009;28;20040;-35
2022/03/18 07:29:20;;;;;;;13.43;6.43;;;;;;;2.44;86.40;104261.25;5052903;28;20021;-35
2022/03/18 07:31:46;;;;;;;12.57;7.90;;;;;;;2.54;88.99;104242.84;5053209;28;20530;-35
2022/03/18 07:34:11;;;;;;;11.60;7.57;;;;;;;2.90;88.94;104270.91;5054467;28;20358;-35
2022/03/18 07:36:36;;;;;;;16.23;7.73;;;;;;;3.12;89.22;104283.75;5071904;28;20067;-35
2022/03/18 07:39:02;;;;;;;15.87;9.60;;;;;;;3.40;89.34;104290.88;5056551;28;20029;-35
2022/03/18 07:41:27;;;;;;;13.60;9.07;;;;;;;3.45;89.14;104272.69;5057083;28;20086;-35
2022/03/18 07:43:53;;;;;;;13.73;8.73;;;;;;;3.58;88.30;104273.63;5056378;28;20037;-35
2022/03/18 07:46:18;;;;;;;15.57;9.30;;;;;;;3.83;88.10;104291.56;5057055;28;20342;-35
2022/03/18 07:48:44;;;;;;;16.53;8.70;;;;;;;4.01;86.96;104306.41;5056411;28;20381;-35
2022/03/18 07:51:12;;;;;;;10.95;6.82;;;;;;;4.13;86.97;104300.22;5055399;28;20442;-35
2022/03/18 07:53:37;;;;;;;13.68;7.00;;;;;;;4.26;86.94;104292.22;5056589;28;20077;-35
2022/03/18 07:56:04;;;;;;;15.38;6.90;;;;;;;4.42;86.46;104301.88;5055968;28;20028;-35
2022/03/18 07:58:29;;;;;;;13.05;6.65;;;;;;;4.53;86.25;104296.59;5055973;28;20477;-34
2022/03/18 08:00:55;;;;;;;12.40;6.67;;;;;;;4.70;86.14;104303.50;5056444;28;20060;-35
2022/03/18 08:03:20;;;;;;;15.15;7.13;;;;;;;4.88;86.10;104299.47;5055991;28;20108;-35
2022/03/18 08:05:46;;;;;;;13.20;6.80;;;;;;;5.02;85.41;104301.19;5056656;28;20057;-35
2022/03/18 08:08:11;;;;;;;12.43;5.82;;;;;;;5.15;85.27;104302.88;5056059;28;20031;-35
2022/03/18 08:10:37;;;;;;;11.70;6.10;;;;;;;5.28;84.74;104302.00;5055993;28;20040;-35
2022/03/18 08:13:03;;;;;;;13.10;6.20;;;;;;;5.40;83.69;104318.06;5055895;28;20025;-35
2022/03/18 08:15:28;;;;;;;13.50;6.05;;;;;;;5.54;84.00;104308.13;5056614;28;20025;-35
2022/03/18 08:17:54;;;;;;;11.70;5.70;;;;;;;5.65;83.56;104327.00;5055540;28;20105;-35
2022/03/18 08:23:04;;;;;;;10.70;5.70;;;;;;;5.88;82.95;104312.72;5055818;28;20451;-35
2022/03/18 08:25:30;;;;;;;11.07;5.47;;;;;;;6.01;81.68;104317.19;5056079;28;20036;-35
2022/03/18 08:27:55;;;;;;;12.80;6.33;;;;;;;6.19;79.69;104322.00;5055740;28;20108;-35
2022/03/18 08:30:20;;;;;;;11.80;5.33;;;;;;;6.31;78.11;104330.97;5055933;28;20037;-35
2022/03/18 08:32:46;;;;;;;11.43;5.17;;;;;;;6.37;78.99;104335.88;5055654;28;20086;-35
2022/03/18 08:35:12;;;;;;;12.45;5.10;;;;;;;6.53;77.76;104334.69;5055643;28;20032;-35
2022/03/18 08:40:22;;;;;;;11.23;5.10;;;;;;;6.72;75.34;104349.28;5055512;28;20059;-35
2022/03/18 08:42:47;;;;;;;;;;;;;;;6.81;77.21;104342.31;5055285;28;20377;-35
2022/03/18 08:45:12;;;;;;;12.30;4.63;;;;;;;6.89;75.54;104355.19;5055042;28;19919;-35
2022/03/18 08:47:38;;;;;;;8.30;4.60;;;;;;;6.93;76.11;104353.97;5055572;28;20662;-35
2022/03/18 08:50:05;;;;;;;10.97;4.87;;;;;;;7.07;75.58;104360.91;5055383;28;20112;-35
2022/03/18 08:52:30;;;;;;;10.63;4.95;;;;;;;7.12;74.57;104364.09;5055226;28;20040;-35
2022/03/18 08:54:55;;;;;;;9.13;5.40;;;;;;;7.17;74.51;104372.66;5055856;28;20033;-35
2022/03/18 08:57:21;;;;;;;11.30;5.17;;;;;;;7.21;73.21;104372.28;5054882;28;20094;-35
2022/03/18 08:59:46;;;;;;;11.13;4.90;;;;;;;7.30;73.97;104359.09;5056004;28;20036;-35
2022/03/18 09:02:11;;;;;;;11.23;5.37;;;;;;;7.42;74.51;104358.97;5055144;28;20535;-35
2022/03/18 09:04:37;;;;;;;11.07;3.93;;;;;;;7.48;71.95;104352.22;5055276;28;20377;-35
2022/03/18 09:07:03;;;;;;;10.32;4.30;;;;;;;7.73;72.72;104376.16;5055024;28;20033;-35
2022/03/18 09:09:28;;;;;;;10.27;4.45;;;;;;;7.83;69.82;104378.94;5053320;28;20120;-35
2022/03/18 09:11:54;;;;;;;8.50;3.63;;;;;;;7.93;69.27;104371.81;5055722;28;20037;-35
2022/03/18 09:14:20;;;;;;;7.10;3.53;;;;;;;8.00;71.33;104378.41;5054506;28;20052;-35
2022/03/18 09:16:47;;;;;;;9.70;2.65;;;;;;;8.11;68.38;104377.50;5055338;28;20067;-35
2022/03/18 09:19:15;;;;;;;6.13;2.80;;;;;;;8.32;66.12;104387.47;5054627;28;20032;-35
2022/03/18 09:21:40;;;;;;;9.52;3.33;;;;;;;8.42;64.71;104383.88;5053111;28;20393;-35
2022/03/18 09:24:06;;;;;;;7.93;2.60;;;;;;;8.56;62.86;104377.31;5054610;28;20039;-35
2022/03/18 09:26:31;;;;;;;4.45;2.28;;;;;;;8.66;63.28;104382.78;5055209;28;20028;-35
2022/03/18 09:28:57;;;;;;;5.17;2.50;;;;;;;8.64;63.42;104357.78;5054563;28;20021;-35
2022/03/18 09:31:23;;;;;;;8.40;2.17;;;;;;;8.94;61.12;104382.09;5054935;28;20025;-35
2022/03/18 09:33:48;;;;;;;4.55;2.10;;;;;;;9.01;59.74;104382.41;5054650;28;20064;-36
2022/03/18 09:36:18;;;;;;;5.10;2.03;;;;;;;9.05;58.11;104374.91;5054449;28;20025;-35
2022/03/18 09:38:47;;;;;;;5.47;1.83;;;;;;;9.07;57.39;104375.59;5053420;28;20385;-35
2022/03/18 09:41:12;;;;;;;4.10;2.10;;;;;;;9.20;59.25;104377.09;5054507;28;20025;-35
2022/03/18 09:43:39;;;;;;;8.60;2.47;;;;;;;9.33;57.74;104370.63;5054682;28;20369;-35
2022/03/18 09:46:06;;;;;;;7.75;2.25;;;;;;;9.43;58.78;104379.59;5053947;28;20103;-35
2022/03/18 09:48:32;;;;;;;5.03;2.03;;;;;;;9.47;56.75;104381.91;5054161;28;20032;-36
2022/03/18 09:50:58;;;;;;;5.97;2.15;;;;;;;9.63;55.63;104388.63;5052775;28;20409;-36
2022/03/18 09:53:23;;;;;;;4.85;2.00;;;;;;;9.71;55.50;104388.75;5054594;28;20028;-36
2022/03/18 09:55:51;;;;;;;3.65;1.88;;;;;;;9.73;56.26;104392.19;5053585;28;20064;-35
2022/03/18 09:58:17;;;;;;;3.47;1.55;;;;;;;9.80;55.51;104393.34;5053299;28;20028;-35
2022/03/18 10:00:43;;;;;;;;;;;;;;;9.87;55.75;104397.22;5054132;28;20036;-35
2022/03/18 10:03:16;;;;;;;3.75;2.10;;;;;;;10.05;54.87;104409.06;5053876;28;19913;-35
2022/03/18 10:06:01;;;;;;;5.68;1.75;;;;;;;10.12;52.96;104411.19;5054096;28;20461;-35
2022/03/18 10:08:47;;;;;;;7.93;1.80;;;;;;;10.16;53.32;104399.09;5053841;28;20071;-35
2022/03/18 10:11:36;;;;;;;5.85;1.80;;;;;;;10.32;52.37;104410.22;5053891;28;20043;-35
2022/03/18 10:14:07;;;;;;;5.60;1.85;;;;;;;10.42;53.20;104412.94;5054034;28;20029;-35
2022/03/18 10:16:43;;;;;;;4.90;1.83;;;;;;;10.52;54.11;104417.31;5054373;28;20087;-36
2022/03/18 10:19:11;;;;;;;6.38;2.13;;;;;;;10.61;51.65;104412.91;5053680;28;20049;-35
2022/03/18 10:22:00;;;;;;;4.15;1.77;;;;;;;10.68;50.97;104411.31;5054285;28;20029;-35
2022/03/18 10:24:28;;;;;;;6.30;2.25;;;;;;;10.58;49.29;104410.47;5053362;28;20035;-35
2022/03/18 10:27:15;;;;;;;3.95;1.50;;;;;;;10.70;50.78;104403.06;5054189;28;20025;-35
2022/03/18 10:29:55;;;;;;;5.35;1.50;;;;;;;10.92;52.28;104401.88;5054142;28;20021;-35
2022/03/18 10:32:25;;;;;;;5.07;1.90;;;;;;;10.85;49.88;104401.63;5054360;28;20025;-35
2022/03/18 10:37:44;;;;;;;4.07;1.50;;;;;;;11.05;51.00;104405.97;5053574;28;20432;-36
2022/03/18 10:40:11;;;;;;;5.65;1.52;;;;;;;11.22;50.53;104404.31;5052210;28;20068;-36
2022/03/18 10:42:37;;;;;;;5.80;1.40;;;;;;;11.23;48.45;104416.88;5053594;28;20378;-36
2022/03/18 10:45:03;;;;;;;5.50;1.83;;;;;;;11.33;49.23;104404.16;5053445;28;20029;-36
2022/03/18 10:47:34;;;;;;;3.70;1.70;;;;;;;11.45;49.63;104412.94;5053345;28;20035;-36
2022/03/18 10:50:13;;;;;;;4.07;1.52;;;;;;;11.60;50.07;104408.72;5053845;28;20504;-36
2022/03/18 10:52:45;;;;;;;4.65;1.60;;;;;;;11.65;48.41;104394.69;5053628;28;20044;-35
2022/03/18 10:55:25;;;;;;;4.90;1.48;;;;;;;11.64;48.27;104387.59;5052985;28;20465;-36
2022/03/18 10:58:01;;;;;;;5.40;1.98;;;;;;;11.64;47.65;104400.28;5053860;28;20025;-36
2022/03/18 11:00:29;;;;;;;3.73;1.90;;;;;;;11.76;48.34;104401.75;5053589;28;20420;-36
2022/03/18 11:03:01;;;;;;;4.22;1.63;;;;;;;11.69;48.10;104397.97;5052810;28;20021;-36
2022/03/18 11:05:31;;;;;;;3.85;1.67;;;;;;;11.75;47.79;104389.22;5053460;28;20039;-35
2022/03/18 11:07:59;;;;;;;8.05;2.17;;;;;;;11.89;48.94;104388.72;5054467;28;20035;-36
2022/03/18 11:13:12;;;;;;;5.70;2.10;;;;;;;12.08;49.09;104390.44;5057526;28;20058;-35
2022/03/18 11:15:43;;;;;;;4.68;1.92;;;;;;;12.13;49.08;104390.00;5057193;28;20051;-36
2022/03/18 11:18:11;;;;;;;5.90;2.00;;;;;;;12.30;50.46;104391.84;5057374;28;20385;-36
2022/03/18 11:20:42;;;;;;;5.03;1.80;;;;;;;12.29;48.09;104384.69;5057026;28;20540;-36
2022/03/18 11:23:16;;;;;;;5.22;2.03;;;;;;;12.38;48.46;104387.31;5057216;28;20060;-36
2022/03/18 11:25:43;;;;;;;8.10;2.15;;;;;;;12.42;48.91;104398.72;5056914;28;20024;-36
2022/03/18 11:28:14;;;;;;;7.63;2.50;;;;;;;12.45;47.95;104397.56;5057449;28;20488;-36
2022/03/18 11:30:41;;;;;;;7.22;2.10;;;;;;;12.33;47.49;104394.25;5057099;28;20033;-36
2022/03/18 11:33:09;;;;;;;5.32;1.95;;;;;;;12.59;50.60;104381.56;5056747;28;20076;-36
2022/03/18 11:35:50;;;;;;;6.18;2.10;;;;;;;12.79;51.33;104381.38;5057390;28;20024;-36
2022/03/18 11:38:18;;;;;;;3.53;1.90;;;;;;;12.60;47.37;104379.72;5057192;28;20067;-36
2022/03/18 11:40:51;;;;;;;6.18;2.42;;;;;;;12.72;47.49;104374.84;5057474;28;20031;-36
2022/03/18 11:43:35;;;;;;;6.15;2.13;;;;;;;12.69;47.73;104384.19;5056058;28;20098;-36
2022/03/18 11:46:12;;;;;;;5.85;2.08;;;;;;;12.77;49.09;104383.38;5057152;28;20061;-36
2022/03/18 11:48:46;;;;;;;4.05;2.03;;;;;;;12.78;47.89;104385.06;5056506;28;20031;-36
2022/03/18 11:51:24;;;;;;;5.32;1.85;;;;;;;12.78;48.16;104382.34;5056559;28;20386;-36
2022/03/18 11:53:54;;;;;;;4.63;1.90;;;;;;;12.70;49.15;104358.72;5056736;28;20033;-36
2022/03/18 11:56:41;;;;;;;3.72;1.80;;;;;;;12.78;47.34;104382.34;5056642;28;20036;-36
2022/03/18 11:59:25;;;;;;;4.90;1.67;;;;;;;12.99;50.23;104373.84;5056870;28;20064;-36
2022/03/18 12:02:00;;;;;;;4.68;2.28;;;;;;;13.19;47.99;104369.03;5056254;28;20553;-36